Airfield :
LOGIN :

Register | Disclaimer

   EN    FR    IT 

 










Legend :    VFR   Marginal VFR   IFR   Intensive IFR   Very Intensive IFR
Visi :
Ceiling :
>= 8 km
>= 3000ft
5 to 8 km
1000 to 3000 ft
1500m to 5 km
500 to 1000 ft
800 to 1500m
200 to 500 ft
< 800m
< 200 ft
Symbols :   Thunderstorms  Fog  Heavy snow  Heavy precipitations  Wind > 20 kt
SIGMETs :     Misc.  Thunderstorms  Icing  Turbulence  Mountain Waves  Volcanic Ashes






- Airport Elevation : 584 ft


EPRA - Radom

CURRENT METAR :
  • 182230Z VRB01KT CAVOK 18/14 Q1022

EXPIRED METARs :
  • 182200Z 36002KT CAVOK 19/14 Q1022
  • 182130Z 33003KT CAVOK 20/14 Q1022
  • 182100Z 35004KT CAVOK 20/14 Q1022
  • 182030Z VRB01KT CAVOK 20/14 Q1022
  • 182000Z VRB01KT CAVOK 20/14 Q1022
  • 181930Z 35002KT CAVOK 21/14 Q1022
  • 181900Z 36002KT CAVOK 22/14 Q1022
  • 181830Z 01004KT CAVOK 23/13 Q1021

TAF TAF EPRA
Valid from the 18 at 21:00 until the 19 at 06:00 UTC


182030Z 1821/1906 36004KT CAVOK



MET'MAP, your aeronautical weather chart ! - Copyright ORBIFLY December 2007 - Disclaimer

ORBIFLY MET'MAP TEAM :

Programming & Development : Alexandra Zaïnal
Original concept : Baudouin d'Aumeries
Technical & hardware support : Manuel Goepfert
Assistance : Marc-Olivier Méhu




SOURCES & CREDITS :

   NOAA